Time;durP1;ratioP1;P1;durP2;ratioP2;P2;SDS_P1;SDS_P2;PMS_P1;PMS_P2;Temp;Humidity;BMP_temperature;BMP_pressure;BME280_temperature;BME280_humidity;BME280_pressure;Samples;Min_cycle;Max_cycle;Signal;HPM_P1;HPM_P2
2022/10/20 00:01:41;;;;;;;;;12.50;8.75;;;;;;;;5043133;28;61781;-80
2022/10/20 00:04:06;;;;;;;;;13.50;9.75;;;;;;;;5043376;28;61878;-80
2022/10/20 00:06:32;;;;;;;;;12.50;11.50;;;;;;;;5043094;28;62164;-79
2022/10/20 00:08:59;;;;;;;;;16.75;13.00;;;;;;;;5042233;28;61839;-80
2022/10/20 00:11:24;;;;;;;;;12.00;10.50;;;;;;;;5025381;28;62018;-79
2022/10/20 00:13:51;;;;;;;;;10.50;9.25;;;;;;;;5042840;28;61869;-80
2022/10/20 00:16:16;;;;;;;;;11.00;7.75;;;;;;;;5043468;28;61973;-79
2022/10/20 00:18:42;;;;;;;;;12.25;10.25;;;;;;;;5042088;28;61897;-80
2022/10/20 00:21:09;;;;;;;;;9.00;7.50;;;;;;;;5024907;28;61806;-79
2022/10/20 00:23:34;;;;;;;;;11.00;10.50;;;;;;;;5042943;28;61755;-78
2022/10/20 00:26:01;;;;;;;;;11.50;11.50;;;;;;;;5043066;28;62012;-80
2022/10/20 00:28:26;;;;;;;;;12.00;9.00;;;;;;;;5024564;28;64019;-80
2022/10/20 00:30:55;;;;;;;;;12.75;11.25;;;;;;;;5024892;28;62848;-80
2022/10/20 00:33:20;;;;;;;;;14.25;9.75;;;;;;;;5042994;28;61741;-80
2022/10/20 00:35:46;;;;;;;;;14.25;11.75;;;;;;;;5024677;28;61956;-80
2022/10/20 00:38:11;;;;;;;;;11.00;11.00;;;;;;;;5042045;28;62001;-79
2022/10/20 00:40:36;;;;;;;;;12.25;9.50;;;;;;;;5044621;28;61982;-80
2022/10/20 00:43:02;;;;;;;;;9.50;9.50;;;;;;;;5062394;28;62038;-79
2022/10/20 00:45:27;;;;;;;;;10.25;10.25;;;;;;;;5063339;28;61829;-80
2022/10/20 00:47:54;;;;;;;;;9.75;8.75;;;;;;;;5043754;28;63610;-80
2022/10/20 00:50:23;;;;;;;;;13.50;10.50;;;;;;;;5062552;28;61908;-80
2022/10/20 00:52:48;;;;;;;;;12.00;9.50;;;;;;;;5062388;28;61834;-79
2022/10/20 00:55:16;;;;;;;;;11.50;9.00;;;;;;;;5062921;28;62096;-80
2022/10/20 00:57:44;;;;;;;;;12.25;11.00;;;;;;;;5043952;28;64993;-79
2022/10/20 01:00:10;;;;;;;;;12.75;8.75;;;;;;;;5062557;28;61825;-79
2022/10/20 01:02:35;;;;;;;;;11.00;8.75;;;;;;;;5044453;28;61934;-80
2022/10/20 01:05:01;;;;;;;;;12.50;9.25;;;;;;;;5062279;28;61659;-80
2022/10/20 01:07:26;;;;;;;;;8.50;8.50;;;;;;;;5043545;28;63790;-79
2022/10/20 01:09:52;;;;;;;;;12.50;9.00;;;;;;;;5062347;28;61891;-80
2022/10/20 01:12:26;;;;;;;;;17.00;14.25;;;;;;;;5062643;28;61895;-80
2022/10/20 01:15:01;;;;;;;;;15.50;9.00;;;;;;;;5062979;28;62290;-80
2022/10/20 01:17:52;;;;;;;;;10.50;9.75;;;;;;;;5061707;28;63071;-79
2022/10/20 01:20:36;;;;;;;;;11.00;10.25;;;;;;;;5058685;28;61877;-79
2022/10/20 01:23:20;;;;;;;;;13.00;9.25;;;;;;;;5061703;28;61919;-80
2022/10/20 01:26:04;;;;;;;;;15.00;8.00;;;;;;;;5062261;28;62181;-80
2022/10/20 01:28:36;;;;;;;;;11.00;9.00;;;;;;;;5061473;28;61953;-79
2022/10/20 01:31:04;;;;;;;;;10.25;9.75;;;;;;;;5043791;28;61795;-80
2022/10/20 01:33:32;;;;;;;;;12.00;9.25;;;;;;;;5062045;28;61943;-80
2022/10/20 01:36:06;;;;;;;;;9.75;7.75;;;;;;;;5062074;28;61919;-80
2022/10/20 01:38:32;;;;;;;;;12.00;8.75;;;;;;;;5061450;28;62567;-80
2022/10/20 01:41:03;;;;;;;;;13.67;10.67;;;;;;;;5061679;28;61790;-80
2022/10/20 01:43:31;;;;;;;;;9.00;9.00;;;;;;;;5043774;28;62025;-79
2022/10/20 01:45:57;;;;;;;;;9.75;8.50;;;;;;;;5061905;28;62100;-79
2022/10/20 01:48:25;;;;;;;;;10.50;9.00;;;;;;;;5060775;28;62013;-79
2022/10/20 01:50:50;;;;;;;;;13.00;9.33;;;;;;;;5062017;28;61904;-79
2022/10/20 01:53:16;;;;;;;;;8.00;8.00;;;;;;;;5022561;28;62362;-79
2022/10/20 01:55:41;;;;;;;;;6.50;6.50;;;;;;;;5024312;28;61775;-80
2022/10/20 01:58:37;;;;;;;;;12.00;9.25;;;;;;;;5024715;28;62769;-80
2022/10/20 02:01:11;;;;;;;;;7.00;7.00;;;;;;;;5025058;28;61794;-80
2022/10/20 02:03:39;;;;;;;;;12.00;7.50;;;;;;;;5025296;28;61916;-79
2022/10/20 02:06:17;;;;;;;;;13.25;11.25;;;;;;;;5023926;28;62141;-80
2022/10/20 02:08:44;;;;;;;;;13.25;10.25;;;;;;;;5024506;28;62899;-80
2022/10/20 02:11:16;;;;;;;;;10.00;8.25;;;;;;;;5023407;28;61980;-80
2022/10/20 02:13:41;;;;;;;;;7.50;7.00;;;;;;;;5025121;28;61773;-80
2022/10/20 02:16:10;;;;;;;;;11.00;8.25;;;;;;;;5024806;28;62142;-80
2022/10/20 02:18:39;;;;;;;;;6.75;6.00;;;;;;;;5024362;28;61721;-79
2022/10/20 02:21:05;;;;;;;;;12.25;8.75;;;;;;;;5024790;28;61688;-80
2022/10/20 02:23:33;;;;;;;;;8.25;8.25;;;;;;;;5024846;28;62008;-79
2022/10/20 02:25:59;;;;;;;;;11.00;6.00;;;;;;;;5023693;28;62118;-80
2022/10/20 02:28:25;;;;;;;;;8.50;8.50;;;;;;;;5024180;28;61830;-79
2022/10/20 02:30:51;;;;;;;;;10.00;8.75;;;;;;;;5023362;28;61813;-79
2022/10/20 02:33:16;;;;;;;;;10.00;6.25;;;;;;;;5024671;28;62518;-80
2022/10/20 02:35:49;;;;;;;;;7.00;6.00;;;;;;;;5024968;28;61832;-79
2022/10/20 02:38:14;;;;;;;;;7.50;6.50;;;;;;;;5023883;28;61773;-79
2022/10/20 02:40:39;;;;;;;;;8.25;7.00;;;;;;;;5024682;28;62079;-79
2022/10/20 02:43:09;;;;;;;;;6.75;5.25;;;;;;;;5038010;28;61813;-79
2022/10/20 02:45:34;;;;;;;;;12.25;6.00;;;;;;;;5044851;28;62061;-79
2022/10/20 02:47:59;;;;;;;;;12.50;7.00;;;;;;;;5042146;28;63747;-79
2022/10/20 02:50:24;;;;;;;;;9.00;6.25;;;;;;;;5042825;28;61873;-80
2022/10/20 02:52:50;;;;;;;;;6.67;3.00;;;;;;;;5049772;28;61796;-79
2022/10/20 02:55:15;;;;;;;;;5.75;5.00;;;;;;;;5046278;28;61922;-80
2022/10/20 02:57:40;;;;;;;;;9.33;6.00;;;;;;;;5045926;28;63449;-80
2022/10/20 03:00:06;;;;;;;;;6.75;3.75;;;;;;;;5064482;28;61978;-79
2022/10/20 03:02:31;;;;;;;;;6.25;3.75;;;;;;;;5064669;28;62076;-80
2022/10/20 03:04:57;;;;;;;;;5.00;5.00;;;;;;;;5046477;28;61768;-80
2022/10/20 03:07:22;;;;;;;;;6.00;4.00;;;;;;;;5063557;28;61805;-79
2022/10/20 03:09:47;;;;;;;;;10.00;5.00;;;;;;;;5064372;28;62084;-79
2022/10/20 03:12:13;;;;;;;;;4.33;4.00;;;;;;;;5064289;28;61837;-79
2022/10/20 03:14:38;;;;;;;;;6.33;4.00;;;;;;;;5064397;28;61781;-79
2022/10/20 03:17:04;;;;;;;;;5.00;4.00;;;;;;;;5045273;28;63731;-79
2022/10/20 03:19:29;;;;;;;;;4.50;3.00;;;;;;;;5064055;28;61670;-79
2022/10/20 03:21:54;;;;;;;;;5.00;5.00;;;;;;;;5064076;28;61722;-79
2022/10/20 03:24:19;;;;;;;;;5.33;3.67;;;;;;;;5046044;28;61798;-79
2022/10/20 03:26:45;;;;;;;;;5.00;4.33;;;;;;;;5063598;28;62959;-79
2022/10/20 03:29:10;;;;;;;;;5.00;4.00;;;;;;;;5063686;28;61800;-79
2022/10/20 03:31:35;;;;;;;;;10.00;5.00;;;;;;;;5064163;28;61727;-80
2022/10/20 03:34:00;;;;;;;;;5.00;5.00;;;;;;;;5064414;28;61931;-79
2022/10/20 03:36:26;;;;;;;;;3.33;3.33;;;;;;;;5063261;28;62760;-79
2022/10/20 03:38:51;;;;;;;;;3.33;3.00;;;;;;;;5063926;28;61727;-79
2022/10/20 03:41:16;;;;;;;;;3.67;3.67;;;;;;;;5063738;28;61783;-79
2022/10/20 03:43:42;;;;;;;;;4.00;3.33;;;;;;;;5063645;28;61862;-79
2022/10/20 03:46:08;;;;;;;;;4.00;3.33;;;;;;;;5045037;28;63757;-79
2022/10/20 03:48:34;;;;;;;;;5.00;4.00;;;;;;;;5063582;28;61761;-78
2022/10/20 03:51:00;;;;;;;;;5.00;3.00;;;;;;;;5063739;28;61734;-79
2022/10/20 03:53:25;;;;;;;;;5.00;3.00;;;;;;;;5063395;28;62121;-79
2022/10/20 03:55:50;;;;;;;;;3.67;3.33;;;;;;;;5063229;28;62796;-79
2022/10/20 03:58:15;;;;;;;;;3.33;3.33;;;;;;;;5063367;28;61774;-79
2022/10/20 04:00:40;;;;;;;;;4.00;4.00;;;;;;;;5063747;28;61850;-79
2022/10/20 04:03:06;;;;;;;;;6.00;5.00;;;;;;;;5046788;28;62025;-79
2022/10/20 04:05:31;;;;;;;;;4.25;4.25;;;;;;;;5044677;28;63748;-79
2022/10/20 04:07:56;;;;;;;;;8.25;6.00;;;;;;;;5063385;28;61912;-79
2022/10/20 04:10:26;;;;;;;;;3.00;3.00;;;;;;;;5063336;28;62031;-79
2022/10/20 04:12:51;;;;;;;;;3.33;2.67;;;;;;;;5063569;28;61788;-79
2022/10/20 04:15:17;;;;;;;;;5.00;4.00;;;;;;;;5043809;28;63926;-78
2022/10/20 04:17:43;;;;;;;;;5.33;3.00;;;;;;;;5063171;28;61787;-79
2022/10/20 04:20:09;;;;;;;;;6.00;5.00;;;;;;;;5063326;28;61904;-79
2022/10/20 04:22:34;;;;;;;;;5.50;4.50;;;;;;;;5063135;28;61983;-79
2022/10/20 04:24:59;;;;;;;;;4.67;4.00;;;;;;;;5044352;28;63781;-78
2022/10/20 04:27:25;;;;;;;;;5.33;5.33;;;;;;;;5062414;28;61953;-79
2022/10/20 04:29:50;;;;;;;;;4.33;3.67;;;;;;;;5063210;28;61918;-79
2022/10/20 04:32:15;;;;;;;;;6.00;4.33;;;;;;;;5045020;28;61753;-79
2022/10/20 04:34:40;;;;;;;;;2.67;2.67;;;;;;;;5062603;28;61828;-79
2022/10/20 04:37:06;;;;;;;;;4.00;4.00;;;;;;;;5062866;28;62026;-79
2022/10/20 04:39:31;;;;;;;;;5.00;5.00;;;;;;;;5062811;28;62154;-79
2022/10/20 04:41:56;;;;;;;;;5.67;5.33;;;;;;;;5062617;28;62013;-79
2022/10/20 04:44:21;;;;;;;;;6.67;4.00;;;;;;;;5062257;28;62951;-79
2022/10/20 04:46:47;;;;;;;;;5.00;5.00;;;;;;;;5062776;28;62255;-79
2022/10/20 04:49:12;;;;;;;;;10.75;5.00;;;;;;;;5047280;28;61897;-79
2022/10/20 04:51:38;;;;;;;;;8.33;5.67;;;;;;;;5024762;28;61867;-79
2022/10/20 04:54:05;;;;;;;;;5.75;5.00;;;;;;;;5041798;28;62608;-79
2022/10/20 04:56:30;;;;;;;;;6.67;3.33;;;;;;;;5042012;28;61697;-79
2022/10/20 04:58:56;;;;;;;;;4.67;4.67;;;;;;;;5024570;28;62225;-78
2022/10/20 05:01:23;;;;;;;;;5.67;4.33;;;;;;;;5042662;28;62123;-80
2022/10/20 05:03:48;;;;;;;;;3.33;3.33;;;;;;;;5041832;28;61759;-79
2022/10/20 05:06:15;;;;;;;;;4.00;4.00;;;;;;;;5042500;28;62048;-80
2022/10/20 05:08:41;;;;;;;;;5.67;4.00;;;;;;;;5041971;28;61834;-80
2022/10/20 05:11:07;;;;;;;;;3.33;3.33;;;;;;;;5043108;28;61978;-79
2022/10/20 05:13:32;;;;;;;;;3.00;2.00;;;;;;;;5024551;28;63907;-78
2022/10/20 05:15:57;;;;;;;;;3.33;3.33;;;;;;;;5042310;28;62047;-80
2022/10/20 05:18:23;;;;;;;;;5.33;3.00;;;;;;;;5041744;28;61945;-79
2022/10/20 05:20:48;;;;;;;;;3.33;3.33;;;;;;;;5024602;28;61795;-79
2022/10/20 05:23:13;;;;;;;;;3.00;3.00;;;;;;;;5041352;28;61970;-78
2022/10/20 05:25:38;;;;;;;;;4.00;3.67;;;;;;;;5041762;28;61977;-79
2022/10/20 05:28:04;;;;;;;;;5.00;2.00;;;;;;;;5022893;28;61760;-79
2022/10/20 05:30:30;;;;;;;;;3.00;1.67;;;;;;;;5024140;28;62164;-79
2022/10/20 05:32:55;;;;;;;;;6.00;4.00;;;;;;;;5041257;28;61904;-79
2022/10/20 05:35:20;;;;;;;;;4.33;2.33;;;;;;;;5023600;28;61843;-80
2022/10/20 05:37:46;;;;;;;;;4.33;4.00;;;;;;;;5041874;28;61702;-79
2022/10/20 05:40:11;;;;;;;;;3.00;3.00;;;;;;;;5041532;28;62134;-80
2022/10/20 05:42:36;;;;;;;;;2.00;2.00;;;;;;;;5039929;28;62218;-80
2022/10/20 05:45:02;;;;;;;;;6.00;3.00;;;;;;;;5041244;28;62284;-80
2022/10/20 05:47:27;;;;;;;;;6.67;3.67;;;;;;;;5041303;28;61819;-79
2022/10/20 05:49:52;;;;;;;;;4.00;3.00;;;;;;;;5041560;28;61823;-79
2022/10/20 05:52:18;;;;;;;;;3.00;2.00;;;;;;;;5022696;28;64756;-80
2022/10/20 05:54:43;;;;;;;;;4.00;3.00;;;;;;;;5041557;28;61844;-80
2022/10/20 05:57:08;;;;;;;;;3.67;2.67;;;;;;;;5041847;28;61793;-80
2022/10/20 05:59:33;;;;;;;;;6.00;3.33;;;;;;;;5023751;28;62148;-80
2022/10/20 06:01:59;;;;;;;;;4.67;3.33;;;;;;;;5022912;28;63537;-79
2022/10/20 06:04:24;;;;;;;;;4.67;4.00;;;;;;;;5041866;28;61916;-80
2022/10/20 06:06:50;;;;;;;;;5.67;2.67;;;;;;;;5041453;28;61993;-81
2022/10/20 06:09:16;;;;;;;;;6.67;2.67;;;;;;;;5023612;28;62024;-80
2022/10/20 06:11:41;;;;;;;;;7.00;3.67;;;;;;;;5041050;28;62677;-80
2022/10/20 06:14:07;;;;;;;;;2.67;2.67;;;;;;;;5023780;28;61823;-80
2022/10/20 06:16:33;;;;;;;;;6.00;4.00;;;;;;;;5023681;28;62002;-80
2022/10/20 06:18:58;;;;;;;;;4.00;4.00;;;;;;;;5023491;28;62340;-80
2022/10/20 06:21:25;;;;;;;;;2.67;2.67;;;;;;;;5023386;28;65229;-80
2022/10/20 06:23:51;;;;;;;;;5.00;4.00;;;;;;;;5035001;28;62047;-80
2022/10/20 06:26:18;;;;;;;;;2.00;2.00;;;;;;;;5024130;28;61826;-80
2022/10/20 06:28:44;;;;;;;;;5.33;4.33;;;;;;;;5023523;28;61951;-81
2022/10/20 06:31:11;;;;;;;;;6.00;3.25;;;;;;;;5039790;28;61842;-80
2022/10/20 06:33:36;;;;;;;;;1.00;1.00;;;;;;;;5026879;28;61990;-80
2022/10/20 06:36:01;;;;;;;;;3.00;3.00;;;;;;;;5040997;28;61949;-81
2022/10/20 06:38:28;;;;;;;;;3.67;2.00;;;;;;;;5040593;28;61783;-81
2022/10/20 06:40:53;;;;;;;;;3.00;3.00;;;;;;;;5029470;28;64737;-81
2022/10/20 06:43:18;;;;;;;;;4.00;2.67;;;;;;;;5032984;28;61797;-80
2022/10/20 06:45:52;;;;;;;;;6.25;3.75;;;;;;;;5025795;28;62068;-80
2022/10/20 06:48:17;;;;;;;;;5.00;3.33;;;;;;;;5043888;28;61955;-77
2022/10/20 06:50:42;;;;;;;;;4.33;3.33;;;;;;;;5024960;28;63622;-78
2022/10/20 06:53:08;;;;;;;;;2.67;2.67;;;;;;;;5043256;28;62509;-78
2022/10/20 06:55:33;;;;;;;;;2.67;2.67;;;;;;;;5043971;28;61831;-78
2022/10/20 06:57:58;;;;;;;;;3.00;3.00;;;;;;;;5043670;28;62113;-78
2022/10/20 07:00:24;;;;;;;;;2.00;2.00;;;;;;;;5042623;28;63087;-78
2022/10/20 07:02:52;;;;;;;;;4.00;3.00;;;;;;;;5043896;28;61794;-78
2022/10/20 07:05:18;;;;;;;;;5.33;3.00;;;;;;;;5043769;28;62127;-79
2022/10/20 07:07:44;;;;;;;;;6.33;3.00;;;;;;;;5043469;28;62333;-78
2022/10/20 07:10:09;;;;;;;;;4.00;4.00;;;;;;;;5043298;28;61803;-79
2022/10/20 07:12:34;;;;;;;;;2.00;2.00;;;;;;;;5026018;28;62127;-79
2022/10/20 07:14:59;;;;;;;;;3.75;3.75;;;;;;;;5043963;28;62003;-79
2022/10/20 07:17:25;;;;;;;;;6.67;3.00;;;;;;;;5043998;28;61882;-79
2022/10/20 07:19:50;;;;;;;;;3.67;3.67;;;;;;;;5024165;28;63788;-78
2022/10/20 07:22:15;;;;;;;;;5.67;5.67;;;;;;;;5042707;28;62095;-79
2022/10/20 07:24:40;;;;;;;;;2.00;2.00;;;;;;;;5043251;28;61843;-79
2022/10/20 07:27:05;;;;;;;;;4.00;2.00;;;;;;;;5042905;28;61933;-79
2022/10/20 07:29:32;;;;;;;;;6.00;4.00;;;;;;;;5042974;28;61944;-79
2022/10/20 07:31:58;;;;;;;;;5.33;4.00;;;;;;;;5024705;28;61814;-78
2022/10/20 07:34:23;;;;;;;;;2.67;2.33;;;;;;;;5043000;28;61721;-78
2022/10/20 07:36:49;;;;;;;;;7.00;4.00;;;;;;;;5024345;28;61976;-78
2022/10/20 07:39:15;;;;;;;;;7.00;4.67;;;;;;;;5041802;28;61768;-79
2022/10/20 07:41:44;;;;;;;;;3.00;1.33;;;;;;;;5025900;28;62273;-78
2022/10/20 07:44:09;;;;;;;;;2.33;2.00;;;;;;;;5042968;28;62079;-78
2022/10/20 07:46:35;;;;;;;;;3.67;1.00;;;;;;;;5022350;28;61811;-79
2022/10/20 07:49:00;;;;;;;;;4.33;3.33;;;;;;;;5041421;28;62614;-79
2022/10/20 07:51:27;;;;;;;;;4.00;3.00;;;;;;;;5024363;28;61854;-79
2022/10/20 07:53:54;;;;;;;;;2.00;2.00;;;;;;;;5042908;28;62131;-79
2022/10/20 07:56:20;;;;;;;;;4.00;3.33;;;;;;;;5043388;28;61657;-79
2022/10/20 07:58:45;;;;;;;;;3.00;3.00;;;;;;;;5024485;28;63571;-79
2022/10/20 08:01:11;;;;;;;;;3.00;2.50;;;;;;;;5043020;28;62356;-79
2022/10/20 08:03:36;;;;;;;;;5.67;2.33;;;;;;;;5025011;28;61939;-78
2022/10/20 08:06:01;;;;;;;;;4.00;4.00;;;;;;;;5042951;28;61892;-79
2022/10/20 08:08:27;;;;;;;;;4.33;3.67;;;;;;;;5041514;28;62108;-79
2022/10/20 08:10:52;;;;;;;;;2.33;2.33;;;;;;;;5043268;28;61963;-79
2022/10/20 08:13:17;;;;;;;;;2.00;2.00;;;;;;;;5042967;28;61762;-79
2022/10/20 08:15:42;;;;;;;;;3.67;2.00;;;;;;;;5042758;28;62381;-79
2022/10/20 08:18:08;;;;;;;;;3.33;3.00;;;;;;;;5041642;28;61810;-78
2022/10/20 08:20:33;;;;;;;;;5.00;2.33;;;;;;;;5042812;28;62116;-79
2022/10/20 08:22:58;;;;;;;;;3.67;1.00;;;;;;;;5042650;28;61652;-79
2022/10/20 08:25:24;;;;;;;;;2.33;1.67;;;;;;;;5025014;28;62140;-79
2022/10/20 08:27:49;;;;;;;;;2.33;2.33;;;;;;;;5023906;28;63606;-79
2022/10/20 08:30:14;;;;;;;;;2.00;2.00;;;;;;;;5024285;28;61884;-79
2022/10/20 08:32:39;;;;;;;;;1.67;1.67;;;;;;;;5024872;28;61839;-79
2022/10/20 08:35:05;;;;;;;;;2.00;2.00;;;;;;;;5042816;28;61828;-79
2022/10/20 08:37:31;;;;;;;;;3.00;2.33;;;;;;;;5023976;28;65054;-79
2022/10/20 08:39:56;;;;;;;;;5.67;1.67;;;;;;;;5041986;28;62018;-79
2022/10/20 08:42:21;;;;;;;;;3.00;3.00;;;;;;;;5042593;28;61739;-79
2022/10/20 08:44:47;;;;;;;;;4.33;2.67;;;;;;;;5042821;28;61704;-79
2022/10/20 08:47:26;;;;;;;;;2.00;2.00;;;;;;;;5041430;28;61908;-79
2022/10/20 08:49:52;;;;;;;;;3.33;3.00;;;;;;;;5024175;28;61965;-79
2022/10/20 08:52:21;;;;;;;;;3.67;2.00;;;;;;;;5041045;28;61714;-80
2022/10/20 08:54:49;;;;;;;;;6.00;1.67;;;;;;;;5042743;28;61795;-78
2022/10/20 08:57:26;;;;;;;;;2.33;1.67;;;;;;;;5023543;28;64147;-78
2022/10/20 08:59:53;;;;;;;;;1.67;1.67;;;;;;;;5041493;28;61715;-78
2022/10/20 09:02:18;;;;;;;;;2.00;2.00;;;;;;;;5041391;28;62874;-78
2022/10/20 09:04:55;;;;;;;;;3.33;2.67;;;;;;;;5042406;28;61857;-78
2022/10/20 09:07:27;;;;;;;;;4.33;2.00;;;;;;;;5023297;28;64440;-78
2022/10/20 09:09:56;;;;;;;;;5.00;2.00;;;;;;;;5042265;28;61895;-78
2022/10/20 09:12:22;;;;;;;;;4.00;1.67;;;;;;;;5041761;28;61985;-78
2022/10/20 09:14:51;;;;;;;;;3.00;2.00;;;;;;;;5042223;28;61863;-78
2022/10/20 09:17:20;;;;;;;;;3.00;2.00;;;;;;;;5022927;28;63424;-78
2022/10/20 09:19:56;;;;;;;;;4.00;2.00;;;;;;;;5041440;28;61941;-78
2022/10/20 09:22:25;;;;;;;;;4.00;1.00;;;;;;;;5023596;28;61731;-78
2022/10/20 09:24:52;;;;;;;;;2.00;1.00;;;;;;;;5023367;28;61909;-78
2022/10/20 09:27:23;;;;;;;;;2.33;2.00;;;;;;;;5040919;28;61691;-78
2022/10/20 09:29:52;;;;;;;;;4.00;2.33;;;;;;;;5023732;28;61856;-78
2022/10/20 09:32:18;;;;;;;;;1.67;1.67;;;;;;;;5041471;28;61830;-78
2022/10/20 09:34:45;;;;;;;;;2.67;2.67;;;;;;;;5023948;28;61876;-78
2022/10/20 09:37:13;;;;;;;;;1.33;1.33;;;;;;;;5040943;28;61737;-78
2022/10/20 09:39:45;;;;;;;;;2.00;2.00;;;;;;;;5041787;28;61740;-78
2022/10/20 09:42:33;;;;;;;;;3.33;3.00;;;;;;;;5041659;28;62112;-78
2022/10/20 09:45:16;;;;;;;;;0.67;0.67;;;;;;;;5021003;28;61894;-78
2022/10/20 09:47:46;;;;;;;;;4.67;1.67;;;;;;;;5039666;28;61904;-78
2022/10/20 09:50:31;;;;;;;;;2.00;2.00;;;;;;;;5040925;28;61691;-78
2022/10/20 09:53:01;;;;;;;;;1.67;1.67;;;;;;;;5040671;28;61804;-78
2022/10/20 09:55:29;;;;;;;;;2.67;1.67;;;;;;;;5020717;28;61773;-78
2022/10/20 09:57:55;;;;;;;;;4.00;1.33;;;;;;;;5021055;28;61811;-78
2022/10/20 10:00:42;;;;;;;;;2.00;2.00;;;;;;;;5021141;28;61883;-78
2022/10/20 10:03:20;;;;;;;;;3.67;1.67;;;;;;;;5003674;28;62001;-77
2022/10/20 10:05:47;;;;;;;;;0.67;0.67;;;;;;;;5021646;28;61717;-77
2022/10/20 10:08:14;;;;;;;;;0.67;0.00;;;;;;;;5002900;28;65091;-77
2022/10/20 10:10:39;;;;;;;;;2.33;1.33;;;;;;;;5021584;28;61657;-78
2022/10/20 10:13:16;;;;;;;;;3.00;0.67;;;;;;;;5003470;28;61914;-78
2022/10/20 10:15:42;;;;;;;;;1.00;1.00;;;;;;;;5025004;28;61782;-76
2022/10/20 10:18:12;;;;;;;;;0.00;0.00;;;;;;;;5006408;28;64912;-77
2022/10/20 10:20:38;;;;;;;;;0.67;0.67;;;;;;;;5024564;28;61807;-77
2022/10/20 10:23:15;;;;;;;;;0.67;0.67;;;;;;;;5024907;28;61867;-77
2022/10/20 10:25:40;;;;;;;;;1.67;0.67;;;;;;;;5024990;28;62194;-77
2022/10/20 10:28:19;;;;;;;;;0.67;0.67;;;;;;;;5032336;28;62824;-78
2022/10/20 10:30:45;;;;;;;;;2.00;0.33;;;;;;;;5044732;28;62155;-78
2022/10/20 10:33:28;;;;;;;;;1.00;0.00;;;;;;;;5044631;28;61951;-78
2022/10/20 10:35:53;;;;;;;;;0.00;0.00;;;;;;;;5044986;28;61798;-77
2022/10/20 10:38:19;;;;;;;;;3.67;1.00;;;;;;;;5043568;28;62532;-77
2022/10/20 10:40:55;;;;;;;;;1.00;0.00;;;;;;;;5047500;28;61758;-78
2022/10/20 10:43:39;;;;;;;;;0.00;0.00;;;;;;;;5064471;28;61956;-78
2022/10/20 10:46:07;;;;;;;;;1.67;0.00;;;;;;;;5064842;28;61886;-78
2022/10/20 10:48:51;;;;;;;;;0.00;0.00;;;;;;;;5045070;28;62850;-77
2022/10/20 10:51:31;;;;;;;;;1.00;0.00;;;;;;;;5064598;28;61738;-76
2022/10/20 10:54:09;;;;;;;;;0.00;0.00;;;;;;;;5055957;28;61962;-77
2022/10/20 10:56:46;;;;;;;;;1.00;0.00;;;;;;;;5044375;28;61949;-77
2022/10/20 10:59:26;;;;;;;;;0.33;0.33;;;;;;;;5043549;28;61679;-77
2022/10/20 11:02:10;;;;;;;;;0.00;0.00;;;;;;;;5044094;28;61843;-77
2022/10/20 11:05:05;;;;;;;;;0.33;0.33;;;;;;;;5043838;28;62374;-77
2022/10/20 11:07:30;;;;;;;;;0.00;0.00;;;;;;;;5016988;28;61872;-76
2022/10/20 11:09:55;;;;;;;;;0.00;0.00;;;;;;;;5043472;28;62804;-77
2022/10/20 11:12:39;;;;;;;;;0.00;0.00;;;;;;;;5043923;28;61879;-76
2022/10/20 11:15:20;;;;;;;;;0.00;0.00;;;;;;;;5026057;28;61778;-77
2022/10/20 11:17:45;;;;;;;;;0.00;0.00;;;;;;;;5043929;28;61801;-77
2022/10/20 11:20:23;;;;;;;;;2.33;1.00;;;;;;;;5025196;28;63959;-77
2022/10/20 11:23:12;;;;;;;;;0.00;0.00;;;;;;;;5025835;28;61976;-77
2022/10/20 11:25:41;;;;;;;;;0.33;0.33;;;;;;;;5024212;28;61756;-77
2022/10/20 11:28:24;;;;;;;;;0.00;0.00;;;;;;;;5043167;28;62057;-77
2022/10/20 11:30:50;;;;;;;;;0.00;0.00;;;;;;;;5008483;28;63844;-78
2022/10/20 11:33:22;;;;;;;;;0.00;0.00;;;;;;;;5043714;28;62096;-76
2022/10/20 11:35:51;;;;;;;;;0.00;0.00;;;;;;;;5043717;28;61653;-78
2022/10/20 11:38:16;;;;;;;;;0.00;0.00;;;;;;;;5043620;28;61780;-77
2022/10/20 11:40:51;;;;;;;;;1.00;1.00;;;;;;;;5027155;28;63948;-77
2022/10/20 11:43:23;;;;;;;;;0.33;0.33;;;;;;;;5063788;28;61822;-77
2022/10/20 11:45:53;;;;;;;;;2.00;0.00;;;;;;;;5063585;28;62185;-78
2022/10/20 11:48:25;;;;;;;;;0.00;0.00;;;;;;;;5045228;28;61920;-78
2022/10/20 11:51:01;;;;;;;;;1.00;0.67;;;;;;;;5062913;28;61793;-78
2022/10/20 11:53:30;;;;;;;;;0.00;0.00;;;;;;;;5059412;28;61853;-78
2022/10/20 11:55:58;;;;;;;;;0.67;0.00;;;;;;;;5042915;28;61936;-78
2022/10/20 11:58:43;;;;;;;;;0.00;0.00;;;;;;;;5043630;28;62199;-78
2022/10/20 12:01:21;;;;;;;;;1.00;0.00;;;;;;;;5042332;28;61832;-78
2022/10/20 12:04:12;;;;;;;;;0.33;0.00;;;;;;;;5043213;28;61770;-78
2022/10/20 12:06:51;;;;;;;;;0.00;0.00;;;;;;;;5025186;28;61893;-79
2022/10/20 12:09:25;;;;;;;;;1.00;0.00;;;;;;;;5043176;28;61921;-78
2022/10/20 12:11:57;;;;;;;;;2.00;0.67;;;;;;;;5042099;28;61899;-78
2022/10/20 12:14:30;;;;;;;;;0.00;0.00;;;;;;;;5042972;28;61674;-79
2022/10/20 12:17:01;;;;;;;;;0.00;0.00;;;;;;;;5042981;28;61691;-78
2022/10/20 12:19:28;;;;;;;;;0.00;0.00;;;;;;;;5043274;28;61744;-78
2022/10/20 12:21:58;;;;;;;;;1.00;0.00;;;;;;;;5042313;28;62259;-79
2022/10/20 12:24:37;;;;;;;;;0.00;0.00;;;;;;;;5042697;28;61671;-83
2022/10/20 12:27:08;;;;;;;;;0.00;0.00;;;;;;;;5024748;28;61930;-84
2022/10/20 12:29:33;;;;;;;;;0.00;0.00;;;;;;;;5023269;28;61820;-79
2022/10/20 12:32:19;;;;;;;;;1.67;0.00;;;;;;;;5038215;28;62501;-78
2022/10/20 12:34:45;;;;;;;;;0.00;0.00;;;;;;;;5042753;28;62186;-79
2022/10/20 12:37:16;;;;;;;;;1.00;0.33;;;;;;;;5042264;28;61816;-79
2022/10/20 12:39:41;;;;;;;;;0.00;0.00;;;;;;;;5042437;28;62145;-79
2022/10/20 12:42:17;;;;;;;;;0.00;0.00;;;;;;;;5056101;28;61702;-83
2022/10/20 12:44:44;;;;;;;;;2.00;1.00;;;;;;;;5062814;28;61628;-78
2022/10/20 12:47:14;;;;;;;;;0.00;0.00;;;;;;;;5044654;28;61763;-79
2022/10/20 12:49:44;;;;;;;;;2.67;0.33;;;;;;;;5044138;28;62214;-78
2022/10/20 12:52:19;;;;;;;;;1.67;0.00;;;;;;;;5062085;28;61779;-79
2022/10/20 12:54:45;;;;;;;;;0.00;0.00;;;;;;;;5026130;28;61710;-78
2022/10/20 12:57:29;;;;;;;;;2.00;1.00;;;;;;;;5022593;28;62216;-78
2022/10/20 12:59:54;;;;;;;;;0.00;0.00;;;;;;;;5022410;28;62218;-78
2022/10/20 13:02:22;;;;;;;;;0.00;0.00;;;;;;;;5021717;28;62610;-78
2022/10/20 13:05:06;;;;;;;;;0.00;0.00;;;;;;;;5022354;28;61863;-77
2022/10/20 13:07:51;;;;;;;;;1.00;0.00;;;;;;;;5022230;28;61755;-77
2022/10/20 13:10:25;;;;;;;;;0.00;0.00;;;;;;;;5022514;28;61898;-78
2022/10/20 13:12:51;;;;;;;;;0.00;0.00;;;;;;;;5021632;28;61806;-78
2022/10/20 13:15:18;;;;;;;;;0.33;0.33;;;;;;;;5020889;28;61753;-78
2022/10/20 13:17:50;;;;;;;;;2.00;0.00;;;;;;;;5021911;28;61863;-78
2022/10/20 13:20:24;;;;;;;;;0.00;0.00;;;;;;;;5019300;28;61875;-78
2022/10/20 13:22:51;;;;;;;;;0.00;0.00;;;;;;;;5018338;28;63801;-78
2022/10/20 13:25:32;;;;;;;;;0.00;0.00;;;;;;;;5020574;28;61847;-78
2022/10/20 13:28:01;;;;;;;;;0.00;0.00;;;;;;;;5036252;28;62107;-78
2022/10/20 13:30:26;;;;;;;;;0.33;0.00;;;;;;;;5038868;28;61751;-78
2022/10/20 13:33:18;;;;;;;;;0.00;0.00;;;;;;;;5041147;28;61945;-78
2022/10/20 13:35:55;;;;;;;;;0.33;0.00;;;;;;;;5041889;28;62324;-79
2022/10/20 13:38:29;;;;;;;;;2.33;0.00;;;;;;;;5023616;28;61895;-78
2022/10/20 13:41:06;;;;;;;;;0.33;0.00;;;;;;;;5028263;28;61907;-78
2022/10/20 13:43:45;;;;;;;;;0.33;0.00;;;;;;;;5043343;28;63609;-78
2022/10/20 13:46:20;;;;;;;;;0.67;0.00;;;;;;;;5061854;28;61658;-78
2022/10/20 13:49:01;;;;;;;;;2.33;0.33;;;;;;;;5044252;28;61918;-78
2022/10/20 13:51:29;;;;;;;;;0.00;0.00;;;;;;;;5063684;28;61969;-78
2022/10/20 13:53:57;;;;;;;;;0.00;0.00;;;;;;;;5047157;28;61878;-77
2022/10/20 13:56:48;;;;;;;;;0.00;0.00;;;;;;;;5045014;28;61783;-78
2022/10/20 13:59:14;;;;;;;;;2.33;0.00;;;;;;;;5037256;28;61751;-78
2022/10/20 14:01:44;;;;;;;;;5.00;1.00;;;;;;;;5045329;28;62120;-76
2022/10/20 14:04:25;;;;;;;;;0.00;0.00;;;;;;;;5043988;28;61829;-77
2022/10/20 14:06:50;;;;;;;;;1.00;1.00;;;;;;;;5049032;28;62066;-78
2022/10/20 14:09:17;;;;;;;;;2.00;0.00;;;;;;;;5055125;28;61850;-83
2022/10/20 14:11:48;;;;;;;;;0.00;0.00;;;;;;;;5064584;28;61750;-83
2022/10/20 14:14:16;;;;;;;;;3.33;0.33;;;;;;;;5058567;28;62756;-82
2022/10/20 14:16:47;;;;;;;;;0.00;0.00;;;;;;;;5054391;28;61818;-83
2022/10/20 14:19:13;;;;;;;;;0.00;0.00;;;;;;;;5051005;28;62434;-78
2022/10/20 14:21:43;;;;;;;;;0.00;0.00;;;;;;;;5052881;28;61845;-78
2022/10/20 14:24:14;;;;;;;;;3.00;0.00;;;;;;;;5048959;28;61844;-78
2022/10/20 14:26:42;;;;;;;;;0.33;0.33;;;;;;;;5054591;28;61778;-78
2022/10/20 14:29:09;;;;;;;;;1.00;0.00;;;;;;;;5046656;28;62014;-79
2022/10/20 14:31:34;;;;;;;;;0.00;0.00;;;;;;;;5030499;28;62644;-80
2022/10/20 14:34:00;;;;;;;;;0.00;0.00;;;;;;;;5024566;28;63380;-79
2022/10/20 14:36:26;;;;;;;;;1.00;1.00;;;;;;;;5025490;28;62215;-79
2022/10/20 14:38:55;;;;;;;;;1.00;1.00;;;;;;;;5025659;28;61961;-77
2022/10/20 14:41:29;;;;;;;;;3.33;1.00;;;;;;;;5030203;28;62136;-78
2022/10/20 14:44:01;;;;;;;;;0.67;0.67;;;;;;;;5042755;28;62725;-79
2022/10/20 14:46:38;;;;;;;;;0.67;0.00;;;;;;;;5040330;28;61894;-78
2022/10/20 14:49:11;;;;;;;;;1.67;1.00;;;;;;;;5042435;28;61811;-78
2022/10/20 14:51:43;;;;;;;;;0.00;0.00;;;;;;;;5024977;28;61906;-79